sensor_id;sensor_type;location;lat;lon;timestamp;P1;durP1;ratioP1;P2;durP2;ratioP2
76155;SDS011;64906;51.290;7.348;2024-03-29T00:01:49;4.63;;;1.57;;
76155;SDS011;64906;51.290;7.348;2024-03-29T00:04:14;5.07;;;1.30;;
76155;SDS011;64906;51.290;7.348;2024-03-29T00:06:39;4.13;;;1.40;;
76155;SDS011;64906;51.290;7.348;2024-03-29T00:09:05;4.30;;;1.40;;
76155;SDS011;64906;51.290;7.348;2024-03-29T00:11:30;4.87;;;1.40;;
76155;SDS011;64906;51.290;7.348;2024-03-29T00:13:56;3.50;;;1.25;;
76155;SDS011;64906;51.290;7.348;2024-03-29T00:16:21;3.42;;;1.38;;
76155;SDS011;64906;51.290;7.348;2024-03-29T00:18:50;4.40;;;1.58;;
76155;SDS011;64906;51.290;7.348;2024-03-29T00:21:15;3.30;;;1.23;;
76155;SDS011;64906;51.290;7.348;2024-03-29T00:23:41;5.30;;;1.40;;
76155;SDS011;64906;51.290;7.348;2024-03-29T00:26:06;3.45;;;1.20;;
76155;SDS011;64906;51.290;7.348;2024-03-29T00:28:32;4.07;;;1.40;;
76155;SDS011;64906;51.290;7.348;2024-03-29T00:30:57;4.27;;;1.43;;
76155;SDS011;64906;51.290;7.348;2024-03-29T00:33:22;3.50;;;1.10;;
76155;SDS011;64906;51.290;7.348;2024-03-29T00:35:48;3.57;;;1.20;;
76155;SDS011;64906;51.290;7.348;2024-03-29T00:38:13;5.33;;;1.20;;
76155;SDS011;64906;51.290;7.348;2024-03-29T00:40:39;5.47;;;1.45;;
76155;SDS011;64906;51.290;7.348;2024-03-29T00:43:04;4.07;;;1.20;;
76155;SDS011;64906;51.290;7.348;2024-03-29T00:45:29;4.27;;;1.17;;
76155;SDS011;64906;51.290;7.348;2024-03-29T00:47:55;4.07;;;1.10;;
76155;SDS011;64906;51.290;7.348;2024-03-29T00:50:20;4.72;;;1.30;;
76155;SDS011;64906;51.290;7.348;2024-03-29T00:52:45;4.00;;;1.30;;
76155;SDS011;64906;51.290;7.348;2024-03-29T00:55:13;4.05;;;1.02;;
76155;SDS011;64906;51.290;7.348;2024-03-29T00:57:38;3.35;;;1.20;;
76155;SDS011;64906;51.290;7.348;2024-03-29T01:00:04;6.63;;;1.47;;
76155;SDS011;64906;51.290;7.348;2024-03-29T01:02:30;3.95;;;1.10;;
76155;SDS011;64906;51.290;7.348;2024-03-29T01:04:55;4.67;;;1.20;;
76155;SDS011;64906;51.290;7.348;2024-03-29T01:07:20;3.87;;;1.10;;
76155;SDS011;64906;51.290;7.348;2024-03-29T01:09:45;5.40;;;1.30;;
76155;SDS011;64906;51.290;7.348;2024-03-29T01:12:10;3.63;;;1.37;;
76155;SDS011;64906;51.290;7.348;2024-03-29T01:14:36;3.43;;;1.20;;
76155;SDS011;64906;51.290;7.348;2024-03-29T01:17:02;3.40;;;1.10;;
76155;SDS011;64906;51.290;7.348;2024-03-29T01:19:27;3.33;;;0.98;;
76155;SDS011;64906;51.290;7.348;2024-03-29T01:21:52;3.80;;;1.10;;
76155;SDS011;64906;51.290;7.348;2024-03-29T01:24:18;3.80;;;1.23;;
76155;SDS011;64906;51.290;7.348;2024-03-29T01:26:43;3.05;;;0.93;;
76155;SDS011;64906;51.290;7.348;2024-03-29T01:29:09;3.63;;;0.95;;
76155;SDS011;64906;51.290;7.348;2024-03-29T01:31:34;3.17;;;0.82;;
76155;SDS011;64906;51.290;7.348;2024-03-29T01:34:00;2.95;;;0.95;;
76155;SDS011;64906;51.290;7.348;2024-03-29T01:36:27;4.32;;;1.10;;
76155;SDS011;64906;51.290;7.348;2024-03-29T01:38:53;4.03;;;1.33;;
76155;SDS011;64906;51.290;7.348;2024-03-29T01:41:21;3.88;;;1.10;;
76155;SDS011;64906;51.290;7.348;2024-03-29T01:43:48;4.00;;;1.33;;
76155;SDS011;64906;51.290;7.348;2024-03-29T01:46:14;3.33;;;0.95;;
76155;SDS011;64906;51.290;7.348;2024-03-29T01:48:39;4.33;;;1.10;;
76155;SDS011;64906;51.290;7.348;2024-03-29T01:51:04;3.87;;;1.17;;
76155;SDS011;64906;51.290;7.348;2024-03-29T01:53:30;3.80;;;1.08;;
76155;SDS011;64906;51.290;7.348;2024-03-29T01:55:56;3.75;;;0.80;;
76155;SDS011;64906;51.290;7.348;2024-03-29T01:58:22;4.13;;;1.05;;
76155;SDS011;64906;51.290;7.348;2024-03-29T02:00:56;2.85;;;0.90;;
76155;SDS011;64906;51.290;7.348;2024-03-29T02:03:23;4.47;;;1.15;;
76155;SDS011;64906;51.290;7.348;2024-03-29T02:05:48;4.78;;;1.17;;
76155;SDS011;64906;51.290;7.348;2024-03-29T02:08:14;3.15;;;0.80;;
76155;SDS011;64906;51.290;7.348;2024-03-29T02:10:43;3.55;;;0.90;;
76155;SDS011;64906;51.290;7.348;2024-03-29T02:13:10;3.17;;;1.05;;
76155;SDS011;64906;51.290;7.348;2024-03-29T02:15:36;3.70;;;0.90;;
76155;SDS011;64906;51.290;7.348;2024-03-29T02:18:01;3.20;;;0.70;;
76155;SDS011;64906;51.290;7.348;2024-03-29T02:20:26;3.43;;;0.90;;
76155;SDS011;64906;51.290;7.348;2024-03-29T02:23:00;3.10;;;0.80;;
76155;SDS011;64906;51.290;7.348;2024-03-29T02:25:28;2.60;;;0.80;;
76155;SDS011;64906;51.290;7.348;2024-03-29T02:27:53;3.57;;;1.00;;
76155;SDS011;64906;51.290;7.348;2024-03-29T02:30:19;3.47;;;0.80;;
76155;SDS011;64906;51.290;7.348;2024-03-29T02:32:45;4.40;;;1.00;;
76155;SDS011;64906;51.290;7.348;2024-03-29T02:35:11;3.70;;;1.00;;
76155;SDS011;64906;51.290;7.348;2024-03-29T02:37:36;3.07;;;0.70;;
76155;SDS011;64906;51.290;7.348;2024-03-29T02:40:02;2.45;;;0.70;;
76155;SDS011;64906;51.290;7.348;2024-03-29T02:42:31;2.45;;;0.73;;
76155;SDS011;64906;51.290;7.348;2024-03-29T02:44:57;2.63;;;0.63;;
76155;SDS011;64906;51.290;7.348;2024-03-29T02:47:22;3.27;;;0.90;;
76155;SDS011;64906;51.290;7.348;2024-03-29T02:49:47;3.03;;;0.80;;
76155;SDS011;64906;51.290;7.348;2024-03-29T02:52:13;3.23;;;1.00;;
76155;SDS011;64906;51.290;7.348;2024-03-29T02:54:39;3.23;;;0.80;;
76155;SDS011;64906;51.290;7.348;2024-03-29T02:57:05;3.20;;;0.75;;
76155;SDS011;64906;51.290;7.348;2024-03-29T02:59:30;2.93;;;0.63;;
76155;SDS011;64906;51.290;7.348;2024-03-29T03:01:55;3.72;;;0.77;;
76155;SDS011;64906;51.290;7.348;2024-03-29T03:04:21;3.67;;;1.00;;
76155;SDS011;64906;51.290;7.348;2024-03-29T03:06:46;3.47;;;0.90;;
76155;SDS011;64906;51.290;7.348;2024-03-29T03:09:11;3.33;;;0.93;;
76155;SDS011;64906;51.290;7.348;2024-03-29T03:11:55;3.67;;;0.90;;
76155;SDS011;64906;51.290;7.348;2024-03-29T03:14:21;2.40;;;0.67;;
76155;SDS011;64906;51.290;7.348;2024-03-29T03:16:46;3.60;;;0.93;;
76155;SDS011;64906;51.290;7.348;2024-03-29T03:19:12;3.73;;;0.90;;
76155;SDS011;64906;51.290;7.348;2024-03-29T03:21:37;3.17;;;0.90;;
76155;SDS011;64906;51.290;7.348;2024-03-29T03:24:02;3.80;;;0.70;;
76155;SDS011;64906;51.290;7.348;2024-03-29T03:26:29;3.95;;;0.80;;
76155;SDS011;64906;51.290;7.348;2024-03-29T03:28:54;3.93;;;0.60;;
76155;SDS011;64906;51.290;7.348;2024-03-29T03:31:20;3.50;;;0.83;;
76155;SDS011;64906;51.290;7.348;2024-03-29T03:33:45;2.63;;;0.77;;
76155;SDS011;64906;51.290;7.348;2024-03-29T03:36:11;3.63;;;0.73;;
76155;SDS011;64906;51.290;7.348;2024-03-29T03:38:36;3.80;;;0.70;;
76155;SDS011;64906;51.290;7.348;2024-03-29T03:41:03;4.20;;;0.70;;
76155;SDS011;64906;51.290;7.348;2024-03-29T03:43:28;4.50;;;0.77;;
76155;SDS011;64906;51.290;7.348;2024-03-29T03:45:54;2.93;;;0.80;;
76155;SDS011;64906;51.290;7.348;2024-03-29T03:48:25;4.15;;;0.90;;
76155;SDS011;64906;51.290;7.348;2024-03-29T03:50:50;2.97;;;0.73;;
76155;SDS011;64906;51.290;7.348;2024-03-29T03:53:16;2.63;;;0.63;;
76155;SDS011;64906;51.290;7.348;2024-03-29T03:55:41;3.20;;;0.70;;
76155;SDS011;64906;51.290;7.348;2024-03-29T03:58:06;3.30;;;0.70;;
76155;SDS011;64906;51.290;7.348;2024-03-29T04:00:31;2.63;;;0.60;;
76155;SDS011;64906;51.290;7.348;2024-03-29T04:02:57;3.30;;;0.70;;
76155;SDS011;64906;51.290;7.348;2024-03-29T04:05:22;2.63;;;0.65;;
76155;SDS011;64906;51.290;7.348;2024-03-29T04:07:48;2.55;;;0.57;;
76155;SDS011;64906;51.290;7.348;2024-03-29T04:10:14;2.88;;;0.70;;
76155;SDS011;64906;51.290;7.348;2024-03-29T04:12:40;3.42;;;0.68;;
76155;SDS011;64906;51.290;7.348;2024-03-29T04:15:05;3.20;;;0.65;;
76155;SDS011;64906;51.290;7.348;2024-03-29T04:17:31;2.83;;;0.80;;
76155;SDS011;64906;51.290;7.348;2024-03-29T04:19:57;3.28;;;0.70;;
76155;SDS011;64906;51.290;7.348;2024-03-29T04:22:29;3.05;;;0.63;;
76155;SDS011;64906;51.290;7.348;2024-03-29T04:24:55;2.33;;;0.60;;
76155;SDS011;64906;51.290;7.348;2024-03-29T04:27:20;3.03;;;0.60;;
76155;SDS011;64906;51.290;7.348;2024-03-29T04:29:46;2.87;;;0.70;;
76155;SDS011;64906;51.290;7.348;2024-03-29T04:32:11;2.57;;;0.60;;
76155;SDS011;64906;51.290;7.348;2024-03-29T04:34:36;3.43;;;0.70;;
76155;SDS011;64906;51.290;7.348;2024-03-29T04:37:02;3.43;;;0.83;;
76155;SDS011;64906;51.290;7.348;2024-03-29T04:39:27;3.40;;;0.60;;
76155;SDS011;64906;51.290;7.348;2024-03-29T04:41:53;2.35;;;0.55;;
76155;SDS011;64906;51.290;7.348;2024-03-29T04:44:27;3.25;;;0.60;;
76155;SDS011;64906;51.290;7.348;2024-03-29T04:46:53;2.13;;;0.40;;
76155;SDS011;64906;51.290;7.348;2024-03-29T04:49:19;2.70;;;0.57;;
76155;SDS011;64906;51.290;7.348;2024-03-29T04:51:51;3.00;;;0.50;;
76155;SDS011;64906;51.290;7.348;2024-03-29T04:54:17;2.75;;;0.60;;
76155;SDS011;64906;51.290;7.348;2024-03-29T04:56:42;2.83;;;0.70;;
76155;SDS011;64906;51.290;7.348;2024-03-29T04:59:08;3.38;;;0.55;;
76155;SDS011;64906;51.290;7.348;2024-03-29T05:01:35;2.70;;;0.52;;
76155;SDS011;64906;51.290;7.348;2024-03-29T05:04:00;2.83;;;0.50;;
76155;SDS011;64906;51.290;7.348;2024-03-29T05:06:26;3.00;;;0.63;;
76155;SDS011;64906;51.290;7.348;2024-03-29T05:08:51;2.47;;;0.57;;
76155;SDS011;64906;51.290;7.348;2024-03-29T05:11:17;2.95;;;0.60;;
76155;SDS011;64906;51.290;7.348;2024-03-29T05:13:42;1.83;;;0.40;;
76155;SDS011;64906;51.290;7.348;2024-03-29T05:16:08;3.28;;;0.60;;
76155;SDS011;64906;51.290;7.348;2024-03-29T05:18:34;2.47;;;0.52;;
76155;SDS011;64906;51.290;7.348;2024-03-29T05:20:59;2.37;;;0.53;;
76155;SDS011;64906;51.290;7.348;2024-03-29T05:23:25;3.22;;;0.70;;
76155;SDS011;64906;51.290;7.348;2024-03-29T05:25:50;2.37;;;0.50;;
76155;SDS011;64906;51.290;7.348;2024-03-29T05:28:17;2.83;;;0.70;;
76155;SDS011;64906;51.290;7.348;2024-03-29T05:30:43;2.15;;;0.50;;
76155;SDS011;64906;51.290;7.348;2024-03-29T05:33:08;2.35;;;0.55;;
76155;SDS011;64906;51.290;7.348;2024-03-29T05:35:33;2.73;;;0.60;;
76155;SDS011;64906;51.290;7.348;2024-03-29T05:37:59;3.00;;;0.70;;
76155;SDS011;64906;51.290;7.348;2024-03-29T05:40:24;2.50;;;0.60;;
76155;SDS011;64906;51.290;7.348;2024-03-29T05:42:52;2.85;;;0.60;;
76155;SDS011;64906;51.290;7.348;2024-03-29T05:45:28;3.88;;;0.70;;
76155;SDS011;64906;51.290;7.348;2024-03-29T05:47:55;2.72;;;0.50;;
76155;SDS011;64906;51.290;7.348;2024-03-29T05:50:22;3.30;;;0.70;;
76155;SDS011;64906;51.290;7.348;2024-03-29T05:52:50;2.83;;;0.75;;
76155;SDS011;64906;51.290;7.348;2024-03-29T05:55:17;2.33;;;0.60;;
76155;SDS011;64906;51.290;7.348;2024-03-29T05:57:43;2.40;;;0.52;;
76155;SDS011;64906;51.290;7.348;2024-03-29T06:00:10;2.00;;;0.50;;
76155;SDS011;64906;51.290;7.348;2024-03-29T06:02:37;2.40;;;0.57;;
76155;SDS011;64906;51.290;7.348;2024-03-29T06:05:02;3.30;;;0.73;;
76155;SDS011;64906;51.290;7.348;2024-03-29T06:07:28;2.70;;;0.70;;
76155;SDS011;64906;51.290;7.348;2024-03-29T06:09:54;2.42;;;0.50;;
76155;SDS011;64906;51.290;7.348;2024-03-29T06:12:20;2.25;;;0.60;;
76155;SDS011;64906;51.290;7.348;2024-03-29T06:14:45;2.15;;;0.52;;
76155;SDS011;64906;51.290;7.348;2024-03-29T06:17:29;2.90;;;0.52;;
76155;SDS011;64906;51.290;7.348;2024-03-29T06:19:55;2.03;;;0.47;;
76155;SDS011;64906;51.290;7.348;2024-03-29T06:22:24;3.70;;;0.70;;
76155;SDS011;64906;51.290;7.348;2024-03-29T06:24:53;3.30;;;0.68;;
76155;SDS011;64906;51.290;7.348;2024-03-29T06:27:18;2.35;;;0.43;;
76155;SDS011;64906;51.290;7.348;2024-03-29T06:29:45;5.70;;;0.90;;
76155;SDS011;64906;51.290;7.348;2024-03-29T06:32:11;2.80;;;0.50;;
76155;SDS011;64906;51.290;7.348;2024-03-29T06:34:36;3.13;;;0.70;;
76155;SDS011;64906;51.290;7.348;2024-03-29T06:37:02;3.00;;;0.53;;
76155;SDS011;64906;51.290;7.348;2024-03-29T06:39:27;2.85;;;0.60;;
76155;SDS011;64906;51.290;7.348;2024-03-29T06:41:53;3.63;;;0.60;;
76155;SDS011;64906;51.290;7.348;2024-03-29T06:44:18;2.70;;;0.50;;
76155;SDS011;64906;51.290;7.348;2024-03-29T06:46:43;1.77;;;0.30;;
76155;SDS011;64906;51.290;7.348;2024-03-29T06:49:09;2.57;;;0.60;;
76155;SDS011;64906;51.290;7.348;2024-03-29T06:51:34;2.63;;;0.50;;
76155;SDS011;64906;51.290;7.348;2024-03-29T06:53:59;3.07;;;0.60;;
76155;SDS011;64906;51.290;7.348;2024-03-29T06:56:25;2.73;;;0.70;;
76155;SDS011;64906;51.290;7.348;2024-03-29T06:58:50;3.30;;;0.60;;
76155;SDS011;64906;51.290;7.348;2024-03-29T07:01:15;4.10;;;0.40;;
76155;SDS011;64906;51.290;7.348;2024-03-29T07:03:40;4.67;;;0.57;;
76155;SDS011;64906;51.290;7.348;2024-03-29T07:06:06;2.50;;;0.60;;
76155;SDS011;64906;51.290;7.348;2024-03-29T07:08:31;3.03;;;0.90;;
76155;SDS011;64906;51.290;7.348;2024-03-29T07:10:57;3.42;;;0.65;;
76155;SDS011;64906;51.290;7.348;2024-03-29T07:13:28;4.28;;;1.00;;
76155;SDS011;64906;51.290;7.348;2024-03-29T07:15:55;3.45;;;0.65;;
76155;SDS011;64906;51.290;7.348;2024-03-29T07:18:20;3.35;;;0.82;;
76155;SDS011;64906;51.290;7.348;2024-03-29T07:20:46;2.97;;;0.80;;
76155;SDS011;64906;51.290;7.348;2024-03-29T07:23:11;2.95;;;0.68;;
76155;SDS011;64906;51.290;7.348;2024-03-29T07:25:37;3.90;;;1.10;;
76155;SDS011;64906;51.290;7.348;2024-03-29T07:28:02;3.03;;;0.85;;
76155;SDS011;64906;51.290;7.348;2024-03-29T07:30:28;4.78;;;1.10;;
76155;SDS011;64906;51.290;7.348;2024-03-29T07:32:53;3.80;;;0.90;;
76155;SDS011;64906;51.290;7.348;2024-03-29T07:35:18;3.40;;;1.10;;
76155;SDS011;64906;51.290;7.348;2024-03-29T07:37:44;5.30;;;1.23;;
76155;SDS011;64906;51.290;7.348;2024-03-29T07:40:15;3.47;;;0.80;;
76155;SDS011;64906;51.290;7.348;2024-03-29T07:42:40;4.00;;;1.15;;
76155;SDS011;64906;51.290;7.348;2024-03-29T07:45:06;3.30;;;1.10;;
76155;SDS011;64906;51.290;7.348;2024-03-29T07:47:32;2.75;;;0.90;;
76155;SDS011;64906;51.290;7.348;2024-03-29T07:49:57;4.68;;;1.20;;
76155;SDS011;64906;51.290;7.348;2024-03-29T07:52:22;4.70;;;1.40;;
76155;SDS011;64906;51.290;7.348;2024-03-29T07:54:48;4.63;;;1.60;;
76155;SDS011;64906;51.290;7.348;2024-03-29T07:57:13;3.58;;;1.30;;
76155;SDS011;64906;51.290;7.348;2024-03-29T07:59:41;4.35;;;1.60;;
76155;SDS011;64906;51.290;7.348;2024-03-29T08:02:06;5.05;;;1.45;;
76155;SDS011;64906;51.290;7.348;2024-03-29T08:04:31;3.93;;;1.47;;
76155;SDS011;64906;51.290;7.348;2024-03-29T08:06:57;4.30;;;1.50;;
76155;SDS011;64906;51.290;7.348;2024-03-29T08:09:22;4.17;;;1.70;;
76155;SDS011;64906;51.290;7.348;2024-03-29T08:11:47;4.70;;;1.70;;
76155;SDS011;64906;51.290;7.348;2024-03-29T08:14:12;5.18;;;2.00;;
76155;SDS011;64906;51.290;7.348;2024-03-29T08:16:38;3.80;;;1.60;;
76155;SDS011;64906;51.290;7.348;2024-03-29T08:19:03;4.25;;;1.77;;
76155;SDS011;64906;51.290;7.348;2024-03-29T08:21:28;5.17;;;1.70;;
76155;SDS011;64906;51.290;7.348;2024-03-29T08:23:54;4.97;;;1.80;;
76155;SDS011;64906;51.290;7.348;2024-03-29T08:26:21;4.28;;;1.73;;
76155;SDS011;64906;51.290;7.348;2024-03-29T08:28:47;4.05;;;1.50;;
76155;SDS011;64906;51.290;7.348;2024-03-29T08:31:12;4.18;;;1.67;;
76155;SDS011;64906;51.290;7.348;2024-03-29T08:33:38;4.88;;;1.77;;
76155;SDS011;64906;51.290;7.348;2024-03-29T08:36:04;5.82;;;2.05;;
76155;SDS011;64906;51.290;7.348;2024-03-29T08:38:31;6.25;;;2.60;;
76155;SDS011;64906;51.290;7.348;2024-03-29T08:40:56;6.30;;;2.38;;
76155;SDS011;64906;51.290;7.348;2024-03-29T08:43:21;6.10;;;2.53;;
76155;SDS011;64906;51.290;7.348;2024-03-29T08:45:47;7.97;;;2.83;;
76155;SDS011;64906;51.290;7.348;2024-03-29T08:48:13;6.10;;;2.67;;
76155;SDS011;64906;51.290;7.348;2024-03-29T08:50:38;7.50;;;2.78;;
76155;SDS011;64906;51.290;7.348;2024-03-29T08:53:03;5.90;;;2.57;;
76155;SDS011;64906;51.290;7.348;2024-03-29T08:55:29;8.38;;;3.33;;
76155;SDS011;64906;51.290;7.348;2024-03-29T08:57:56;5.68;;;2.83;;
76155;SDS011;64906;51.290;7.348;2024-03-29T09:00:23;6.78;;;2.97;;
76155;SDS011;64906;51.290;7.348;2024-03-29T09:02:49;8.52;;;3.08;;
76155;SDS011;64906;51.290;7.348;2024-03-29T09:05:14;7.17;;;3.00;;
76155;SDS011;64906;51.290;7.348;2024-03-29T09:07:40;8.60;;;3.38;;
76155;SDS011;64906;51.290;7.348;2024-03-29T09:10:06;6.80;;;2.97;;
76155;SDS011;64906;51.290;7.348;2024-03-29T09:12:32;6.97;;;3.03;;
76155;SDS011;64906;51.290;7.348;2024-03-29T09:14:57;7.67;;;3.53;;
76155;SDS011;64906;51.290;7.348;2024-03-29T09:17:23;8.13;;;3.17;;
76155;SDS011;64906;51.290;7.348;2024-03-29T09:19:50;6.55;;;3.08;;
76155;SDS011;64906;51.290;7.348;2024-03-29T09:22:16;6.78;;;3.22;;
76155;SDS011;64906;51.290;7.348;2024-03-29T09:24:42;6.53;;;2.83;;
76155;SDS011;64906;51.290;7.348;2024-03-29T09:27:07;8.57;;;3.60;;
76155;SDS011;64906;51.290;7.348;2024-03-29T09:29:33;7.37;;;2.97;;
76155;SDS011;64906;51.290;7.348;2024-03-29T09:31:59;7.95;;;3.15;;
76155;SDS011;64906;51.290;7.348;2024-03-29T09:34:26;7.60;;;3.42;;
76155;SDS011;64906;51.290;7.348;2024-03-29T09:36:52;6.22;;;3.28;;
76155;SDS011;64906;51.290;7.348;2024-03-29T09:39:17;6.83;;;3.80;;
76155;SDS011;64906;51.290;7.348;2024-03-29T09:41:43;7.37;;;3.30;;
76155;SDS011;64906;51.290;7.348;2024-03-29T09:44:10;7.28;;;3.40;;
76155;SDS011;64906;51.290;7.348;2024-03-29T09:46:36;7.40;;;3.60;;
76155;SDS011;64906;51.290;7.348;2024-03-29T09:49:04;8.40;;;3.72;;
76155;SDS011;64906;51.290;7.348;2024-03-29T09:51:31;7.15;;;3.22;;
76155;SDS011;64906;51.290;7.348;2024-03-29T09:53:57;7.57;;;3.38;;
76155;SDS011;64906;51.290;7.348;2024-03-29T09:56:27;7.82;;;3.45;;
76155;SDS011;64906;51.290;7.348;2024-03-29T09:58:53;6.70;;;3.03;;
76155;SDS011;64906;51.290;7.348;2024-03-29T10:01:18;6.05;;;2.67;;
76155;SDS011;64906;51.290;7.348;2024-03-29T10:03:48;6.13;;;3.15;;
76155;SDS011;64906;51.290;7.348;2024-03-29T10:06:18;6.55;;;3.20;;
76155;SDS011;64906;51.290;7.348;2024-03-29T10:08:44;6.55;;;3.30;;
76155;SDS011;64906;51.290;7.348;2024-03-29T10:11:10;6.70;;;3.05;;
76155;SDS011;64906;51.290;7.348;2024-03-29T10:13:36;5.82;;;2.90;;
76155;SDS011;64906;51.290;7.348;2024-03-29T10:16:03;7.05;;;3.17;;
76155;SDS011;64906;51.290;7.348;2024-03-29T10:18:28;6.65;;;3.10;;
76155;SDS011;64906;51.290;7.348;2024-03-29T10:21:00;6.60;;;3.00;;
76155;SDS011;64906;51.290;7.348;2024-03-29T10:23:30;5.97;;;3.00;;
76155;SDS011;64906;51.290;7.348;2024-03-29T10:25:56;7.18;;;3.10;;
76155;SDS011;64906;51.290;7.348;2024-03-29T10:28:22;6.45;;;2.72;;
76155;SDS011;64906;51.290;7.348;2024-03-29T10:30:48;7.10;;;3.33;;
76155;SDS011;64906;51.290;7.348;2024-03-29T10:33:17;7.60;;;3.35;;
76155;SDS011;64906;51.290;7.348;2024-03-29T10:35:43;5.55;;;3.00;;
76155;SDS011;64906;51.290;7.348;2024-03-29T10:38:09;6.43;;;3.10;;
76155;SDS011;64906;51.290;7.348;2024-03-29T10:40:39;7.13;;;3.45;;
76155;SDS011;64906;51.290;7.348;2024-03-29T10:43:10;5.80;;;3.10;;
76155;SDS011;64906;51.290;7.348;2024-03-29T10:45:41;5.95;;;3.00;;
76155;SDS011;64906;51.290;7.348;2024-03-29T10:48:06;6.97;;;3.08;;
76155;SDS011;64906;51.290;7.348;2024-03-29T10:50:35;7.00;;;2.75;;
76155;SDS011;64906;51.290;7.348;2024-03-29T10:53:01;6.28;;;2.85;;
76155;SDS011;64906;51.290;7.348;2024-03-29T10:55:30;6.20;;;2.95;;
76155;SDS011;64906;51.290;7.348;2024-03-29T10:57:58;5.80;;;2.60;;
76155;SDS011;64906;51.290;7.348;2024-03-29T11:00:25;5.82;;;2.83;;
76155;SDS011;64906;51.290;7.348;2024-03-29T11:05:41;7.15;;;2.78;;
76155;SDS011;64906;51.290;7.348;2024-03-29T11:08:13;6.50;;;2.72;;
76155;SDS011;64906;51.290;7.348;2024-03-29T11:10:51;6.63;;;2.67;;
76155;SDS011;64906;51.290;7.348;2024-03-29T11:15:56;6.15;;;2.80;;
76155;SDS011;64906;51.290;7.348;2024-03-29T11:18:24;5.25;;;2.63;;
76155;SDS011;64906;51.290;7.348;2024-03-29T11:20:51;5.32;;;2.53;;
76155;SDS011;64906;51.290;7.348;2024-03-29T11:23:19;6.15;;;2.80;;
76155;SDS011;64906;51.290;7.348;2024-03-29T11:25:48;5.60;;;2.63;;
76155;SDS011;64906;51.290;7.348;2024-03-29T11:28:16;6.00;;;2.53;;
76155;SDS011;64906;51.290;7.348;2024-03-29T11:30:49;5.38;;;2.53;;
76155;SDS011;64906;51.290;7.348;2024-03-29T11:33:28;6.05;;;2.83;;
76155;SDS011;64906;51.290;7.348;2024-03-29T11:35:54;5.70;;;2.70;;
76155;SDS011;64906;51.290;7.348;2024-03-29T11:38:20;5.00;;;2.47;;
76155;SDS011;64906;51.290;7.348;2024-03-29T11:41:01;4.60;;;2.40;;
76155;SDS011;64906;51.290;7.348;2024-03-29T11:43:28;5.38;;;2.67;;
76155;SDS011;64906;51.290;7.348;2024-03-29T11:45:54;5.15;;;2.47;;
76155;SDS011;64906;51.290;7.348;2024-03-29T11:48:21;5.82;;;2.40;;
76155;SDS011;64906;51.290;7.348;2024-03-29T11:50:50;5.25;;;2.20;;
76155;SDS011;64906;51.290;7.348;2024-03-29T11:53:16;5.15;;;2.42;;
76155;SDS011;64906;51.290;7.348;2024-03-29T11:55:41;4.67;;;2.20;;
76155;SDS011;64906;51.290;7.348;2024-03-29T11:58:06;4.80;;;2.40;;
76155;SDS011;64906;51.290;7.348;2024-03-29T12:00:32;4.78;;;2.40;;
76155;SDS011;64906;51.290;7.348;2024-03-29T12:02:57;5.27;;;2.47;;
76155;SDS011;64906;51.290;7.348;2024-03-29T12:05:23;5.85;;;2.67;;
76155;SDS011;64906;51.290;7.348;2024-03-29T12:07:48;6.32;;;2.25;;
76155;SDS011;64906;51.290;7.348;2024-03-29T12:10:14;5.55;;;2.40;;
76155;SDS011;64906;51.290;7.348;2024-03-29T12:12:39;4.93;;;2.10;;
76155;SDS011;64906;51.290;7.348;2024-03-29T12:15:06;5.53;;;2.15;;
76155;SDS011;64906;51.290;7.348;2024-03-29T12:17:32;4.80;;;2.25;;
76155;SDS011;64906;51.290;7.348;2024-03-29T12:19:58;4.87;;;2.00;;
76155;SDS011;64906;51.290;7.348;2024-03-29T12:24:55;4.63;;;2.20;;
76155;SDS011;64906;51.290;7.348;2024-03-29T12:27:20;4.38;;;2.00;;
76155;SDS011;64906;51.290;7.348;2024-03-29T12:29:47;5.75;;;2.25;;
76155;SDS011;64906;51.290;7.348;2024-03-29T12:32:12;5.95;;;2.40;;
76155;SDS011;64906;51.290;7.348;2024-03-29T12:34:37;5.73;;;2.43;;
76155;SDS011;64906;51.290;7.348;2024-03-29T12:37:03;3.87;;;1.77;;
76155;SDS011;64906;51.290;7.348;2024-03-29T12:39:30;4.60;;;2.17;;
76155;SDS011;64906;51.290;7.348;2024-03-29T12:41:58;4.85;;;2.22;;
76155;SDS011;64906;51.290;7.348;2024-03-29T12:44:25;4.80;;;2.00;;
76155;SDS011;64906;51.290;7.348;2024-03-29T12:46:51;5.63;;;2.33;;
76155;SDS011;64906;51.290;7.348;2024-03-29T12:49:16;5.43;;;2.20;;
76155;SDS011;64906;51.290;7.348;2024-03-29T12:51:43;5.75;;;2.45;;
76155;SDS011;64906;51.290;7.348;2024-03-29T12:54:09;5.07;;;1.77;;
76155;SDS011;64906;51.290;7.348;2024-03-29T12:56:35;4.40;;;1.98;;
76155;SDS011;64906;51.290;7.348;2024-03-29T12:59:01;4.70;;;2.15;;
76155;SDS011;64906;51.290;7.348;2024-03-29T13:01:27;4.72;;;2.15;;
76155;SDS011;64906;51.290;7.348;2024-03-29T13:03:52;4.93;;;2.20;;
76155;SDS011;64906;51.290;7.348;2024-03-29T13:06:17;4.80;;;2.07;;
76155;SDS011;64906;51.290;7.348;2024-03-29T13:08:43;4.25;;;1.90;;
76155;SDS011;64906;51.290;7.348;2024-03-29T13:11:08;4.60;;;2.03;;
76155;SDS011;64906;51.290;7.348;2024-03-29T13:13:35;4.50;;;1.85;;
76155;SDS011;64906;51.290;7.348;2024-03-29T13:16:00;4.47;;;2.00;;
76155;SDS011;64906;51.290;7.348;2024-03-29T13:18:25;5.27;;;2.20;;
76155;SDS011;64906;51.290;7.348;2024-03-29T13:20:51;5.07;;;2.17;;
76155;SDS011;64906;51.290;7.348;2024-03-29T13:23:16;4.80;;;2.15;;
76155;SDS011;64906;51.290;7.348;2024-03-29T13:25:42;5.10;;;1.95;;
76155;SDS011;64906;51.290;7.348;2024-03-29T13:28:07;5.38;;;1.90;;
76155;SDS011;64906;51.290;7.348;2024-03-29T13:30:35;4.40;;;2.00;;
76155;SDS011;64906;51.290;7.348;2024-03-29T13:33:03;4.13;;;1.85;;
76155;SDS011;64906;51.290;7.348;2024-03-29T13:35:28;4.70;;;2.27;;
76155;SDS011;64906;51.290;7.348;2024-03-29T13:37:54;5.70;;;2.43;;
76155;SDS011;64906;51.290;7.348;2024-03-29T13:40:21;14.55;;;8.50;;
76155;SDS011;64906;51.290;7.348;2024-03-29T13:42:47;14.93;;;8.45;;
76155;SDS011;64906;51.290;7.348;2024-03-29T13:45:14;17.27;;;9.30;;
76155;SDS011;64906;51.290;7.348;2024-03-29T13:47:40;14.55;;;8.98;;
76155;SDS011;64906;51.290;7.348;2024-03-29T13:50:07;16.67;;;8.82;;
76155;SDS011;64906;51.290;7.348;2024-03-29T13:52:34;14.68;;;8.43;;
76155;SDS011;64906;51.290;7.348;2024-03-29T13:55:00;12.35;;;7.50;;
76155;SDS011;64906;51.290;7.348;2024-03-29T13:57:28;13.68;;;8.23;;
76155;SDS011;64906;51.290;7.348;2024-03-29T13:59:54;13.77;;;8.02;;
76155;SDS011;64906;51.290;7.348;2024-03-29T14:02:19;13.37;;;8.27;;
76155;SDS011;64906;51.290;7.348;2024-03-29T14:04:45;12.68;;;6.95;;
76155;SDS011;64906;51.290;7.348;2024-03-29T14:07:11;13.63;;;7.28;;
76155;SDS011;64906;51.290;7.348;2024-03-29T14:09:39;12.30;;;7.13;;
76155;SDS011;64906;51.290;7.348;2024-03-29T14:12:05;12.70;;;7.03;;
76155;SDS011;64906;51.290;7.348;2024-03-29T14:14:31;13.75;;;7.10;;
76155;SDS011;64906;51.290;7.348;2024-03-29T14:16:56;12.02;;;6.85;;
76155;SDS011;64906;51.290;7.348;2024-03-29T14:19:22;12.07;;;7.07;;
76155;SDS011;64906;51.290;7.348;2024-03-29T14:21:48;11.63;;;6.60;;
76155;SDS011;64906;51.290;7.348;2024-03-29T14:24:13;11.57;;;6.70;;
76155;SDS011;64906;51.290;7.348;2024-03-29T14:26:40;11.48;;;6.78;;
76155;SDS011;64906;51.290;7.348;2024-03-29T14:29:06;12.02;;;6.60;;
76155;SDS011;64906;51.290;7.348;2024-03-29T14:31:36;11.13;;;6.88;;
76155;SDS011;64906;51.290;7.348;2024-03-29T14:34:02;12.23;;;6.87;;
76155;SDS011;64906;51.290;7.348;2024-03-29T14:36:27;11.87;;;6.60;;
76155;SDS011;64906;51.290;7.348;2024-03-29T14:38:52;11.93;;;6.60;;
76155;SDS011;64906;51.290;7.348;2024-03-29T14:41:19;11.25;;;6.55;;
76155;SDS011;64906;51.290;7.348;2024-03-29T14:43:46;10.50;;;6.25;;
76155;SDS011;64906;51.290;7.348;2024-03-29T14:46:14;11.35;;;6.28;;
76155;SDS011;64906;51.290;7.348;2024-03-29T14:48:39;12.17;;;6.77;;